Time;durP1;ratioP1;P1;durP2;ratioP2;P2;SDS_P1;SDS_P2;PMS_P1;PMS_P2;Temp;Humidity;BMP_temperature;BMP_pressure;BME280_temperature;BME280_humidity;BME280_pressure;Samples;Min_cycle;Max_cycle;Signal;HPM_P1;HPM_P2
2021/12/18 00:01:10;;;;;;;;;43.00;34.75;;;;;8.10;67.29;103462.66;5017674;28;45345;-84
2021/12/18 00:03:36;;;;;;;;;39.75;34.00;;;;;8.08;67.19;103454.75;5017723;28;45323;-84
2021/12/18 00:06:02;;;;;;;;;35.25;30.50;;;;;8.07;67.22;103463.50;5009784;28;45438;-84
2021/12/18 00:08:27;;;;;;;;;37.00;34.25;;;;;8.05;67.24;103456.44;5045480;28;46119;-83
2021/12/18 00:10:55;;;;;;;;;36.75;31.25;;;;;8.03;66.74;103453.78;5019824;28;45208;-84
2021/12/18 00:13:21;;;;;;;;;43.50;34.00;;;;;8.03;66.98;103453.78;5016057;28;45491;-84
2021/12/18 00:15:47;;;;;;;;;39.00;32.25;;;;;7.99;66.81;103455.47;5040686;28;46117;-84
2021/12/18 00:18:12;;;;;;;;;42.00;31.00;;;;;7.96;66.49;103449.25;5028831;28;45346;-82
2021/12/18 00:20:38;;;;;;;;;35.00;33.00;;;;;7.93;66.95;103447.44;5019803;28;45390;-83
2021/12/18 00:23:05;;;;;;;;;40.50;32.25;;;;;7.88;67.14;103442.13;5020004;28;45244;-83
2021/12/18 00:25:31;;;;;;;;;42.25;35.00;;;;;7.87;66.80;103456.09;5018317;28;46248;-83
2021/12/18 00:27:57;;;;;;;;;36.75;33.50;;;;;7.86;66.81;103443.81;5029289;28;47003;-82
2021/12/18 00:30:23;;;;;;;;;35.50;31.50;;;;;7.83;66.75;103435.88;5019622;28;45413;-84
2021/12/18 00:32:48;;;;;;;;;37.00;32.50;;;;;7.80;66.98;103443.69;5029356;28;45282;-84
2021/12/18 00:35:14;;;;;;;;;38.75;33.00;;;;;7.78;67.07;103441.91;5036057;28;46485;-87
2021/12/18 00:37:40;;;;;;;;;40.25;33.50;;;;;7.74;66.82;103443.53;5016100;28;46356;-83
2021/12/18 00:40:10;;;;;;;;;41.50;33.75;;;;;7.77;67.01;103446.25;5019625;28;45454;-82
2021/12/18 00:45:14;;;;;;;;;37.00;33.00;;;;;7.70;66.46;103441.72;5019058;28;45193;-83
2021/12/18 00:47:40;;;;;;;;;38.50;31.75;;;;;7.66;66.55;103430.28;5018693;28;46414;-83
2021/12/18 00:50:08;;;;;;;;;42.25;34.75;;;;;7.67;66.77;103436.41;5019595;28;45765;-83
2021/12/18 00:52:34;;;;;;;;;44.75;33.25;;;;;7.61;66.60;103427.56;5019433;28;45430;-83
2021/12/18 00:55:00;;;;;;;;;38.00;33.75;;;;;7.61;66.74;103430.16;5018777;28;45295;-84
2021/12/18 00:57:25;;;;;;;;;44.50;35.50;;;;;7.56;66.71;103418.72;5018966;28;46281;-84
2021/12/18 00:59:53;;;;;;;;;44.50;33.50;;;;;7.55;66.89;103427.44;5019566;28;45272;-84
2021/12/18 01:02:18;;;;;;;;;37.25;33.25;;;;;7.53;67.24;103424.75;5019508;28;45227;-84
2021/12/18 01:04:44;;;;;;;;;32.75;28.00;;;;;7.53;66.81;103436.97;5018719;28;45374;-84
2021/12/18 01:07:09;;;;;;;;;35.50;29.25;;;;;7.48;66.89;103426.38;5032163;28;45531;-84
2021/12/18 01:10:01;;;;;;;;;30.50;28.00;;;;;7.46;66.80;103429.84;5019192;28;45321;-84
2021/12/18 01:12:33;;;;;;;;;24.50;24.00;;;;;7.45;66.91;103441.13;5018112;28;45289;-84
2021/12/18 01:22:48;;;;;;;;;33.00;30.50;;;;;7.31;66.81;103439.94;5018066;28;45822;-83
2021/12/18 01:25:16;;;;;;;;;32.25;29.75;;;;;7.33;66.94;103442.63;5019213;28;45233;-83
2021/12/18 01:27:42;;;;;;;;;34.00;31.00;;;;;7.32;67.05;103444.34;5018621;28;45438;-83
2021/12/18 01:30:10;;;;;;;;;34.75;28.75;;;;;7.34;67.11;103435.63;5030441;28;45406;-84
2021/12/18 01:32:35;;;;;;;;;29.50;27.50;;;;;7.32;66.71;103443.44;5018746;28;45418;-84
2021/12/18 01:35:01;;;;;;;;;33.50;30.50;;;;;7.30;66.68;103443.44;5018779;28;45426;-84
2021/12/18 01:37:27;;;;;;;;;36.75;26.75;;;;;7.29;67.00;103449.50;5018962;28;45170;-84
2021/12/18 01:39:53;;;;;;;;;28.00;24.75;;;;;7.27;67.08;103442.44;5019127;28;45244;-83
2021/12/18 01:52:36;;;;;;;;;33.50;27.50;;;;;7.19;67.76;103457.94;5022338;28;45328;-85
2021/12/18 01:55:02;;;;;;;;;33.00;29.25;;;;;7.24;67.48;103452.81;5033708;28;45731;-84
2021/12/18 01:57:28;;;;;;;;;28.75;24.25;;;;;7.20;67.23;103452.78;5021070;28;45541;-84
2021/12/18 01:59:54;;;;;;;;;31.25;27.50;;;;;7.21;67.50;103445.78;5021390;28;46952;-85
2021/12/18 02:02:20;;;;;;;;;34.50;28.50;;;;;7.25;67.61;103454.63;5027977;28;45276;-85
2021/12/18 02:04:46;;;;;;;;;32.75;27.00;;;;;7.23;68.05;103444.13;5040268;28;45218;-84
2021/12/18 02:07:13;;;;;;;;;33.75;28.25;;;;;7.28;67.52;103449.47;5021398;28;45558;-83
2021/12/18 02:09:59;;;;;;;;;31.75;31.00;;;;;7.23;66.99;103438.00;5032869;28;45758;-84
2021/12/18 02:12:32;;;;;;;;;34.50;28.25;;;;;7.22;67.70;103449.28;5021849;28;45405;-84
2021/12/18 02:22:49;;;;;;;;;33.50;28.25;;;;;7.19;67.53;103451.00;5021905;28;45296;-84
2021/12/18 02:25:14;;;;;;;;;29.00;29.00;;;;;7.19;67.59;103450.09;5021602;28;45327;-84
2021/12/18 02:27:40;;;;;;;;;33.50;31.50;;;;;7.19;67.22;103452.72;5021447;28;45457;-84
2021/12/18 02:30:07;;;;;;;;;27.25;23.50;;;;;7.18;67.66;103444.00;5034848;28;45320;-84
2021/12/18 02:32:33;;;;;;;;;31.25;27.50;;;;;7.19;67.57;103440.53;5020818;28;45387;-83
2021/12/18 02:35:03;;;;;;;;;28.25;26.25;;;;;7.19;67.61;103450.09;5021434;28;45488;-83
2021/12/18 02:37:29;;;;;;;;;33.50;29.25;;;;;7.22;67.77;103451.91;5032428;28;45276;-83
2021/12/18 02:40:51;;;;;;;;;32.25;30.00;;;;;7.20;67.44;103449.28;5021633;28;45833;-83
2021/12/18 02:42:43;;;;;;;;;31.00;26.75;;;;;7.20;67.08;103446.66;5020872;28;45360;-83
2021/12/18 02:45:09;;;;;;;;;32.75;28.25;;;;;7.20;67.33;103442.31;5021505;28;45342;-83
2021/12/18 02:47:35;;;;;;;;;32.00;28.25;;;;;7.18;67.67;103441.41;5020077;28;45384;-84
2021/12/18 02:50:00;;;;;;;;;35.00;28.00;;;;;7.20;67.20;103444.94;5021160;28;45398;-84
2021/12/18 02:52:29;;;;;;;;;32.50;30.75;;;;;7.22;67.73;103444.94;5044713;28;45408;-83
2021/12/18 02:54:54;;;;;;;;;27.75;24.00;;;;;7.16;67.33;103439.59;5032534;28;45477;-84
2021/12/18 02:57:20;;;;;;;;;36.25;29.00;;;;;7.16;67.37;103443.06;5007884;28;45390;-84
2021/12/18 02:59:48;;;;;;;;;30.00;25.00;;;;;7.18;67.79;103443.13;5019767;28;45309;-84
2021/12/18 03:02:16;;;;;;;;;35.25;29.75;;;;;7.18;67.25;103437.88;5021205;28;45528;-84
2021/12/18 03:04:44;;;;;;;;;32.50;31.50;;;;;7.19;67.45;103445.75;5032381;28;46045;-84
2021/12/18 03:07:12;;;;;;;;;28.25;28.00;;;;;7.18;67.35;103437.88;5017109;28;45276;-84
2021/12/18 03:19:01;;;;;;;;;30.25;27.75;;;;;7.19;67.86;103440.53;5020961;28;45363;-83
2021/12/18 03:23:47;;;;;;;;;26.00;23.50;;;;;7.12;67.25;103448.19;5017516;28;45225;-83
2021/12/18 03:26:14;;;;;;;;;36.75;32.00;;;;;7.14;67.72;103447.38;5020674;28;45582;-83
2021/12/18 03:28:39;;;;;;;;;36.25;32.75;;;;;7.13;67.21;103439.50;5035774;28;47105;-84
2021/12/18 03:31:05;;;;;;;;;37.25;29.50;;;;;7.11;67.76;103435.97;5020752;28;45168;-83
2021/12/18 03:33:30;;;;;;;;;33.25;28.25;;;;;7.13;67.59;103449.97;5019912;28;45350;-84
2021/12/18 03:35:57;;;;;;;;;34.25;27.50;;;;;7.12;67.77;103441.22;5020635;28;45181;-85
2021/12/18 03:38:24;;;;;;;;;23.00;21.25;;;;;7.12;67.60;103446.44;5019854;28;46641;-84
2021/12/18 03:40:49;;;;;;;;;35.25;30.75;;;;;7.09;67.44;103443.75;5023504;28;45340;-84
2021/12/18 03:43:15;;;;;;;;;41.50;34.25;;;;;7.03;67.61;103444.50;5029641;28;45356;-84
2021/12/18 03:45:40;;;;;;;;;38.75;31.50;;;;;7.03;68.05;103444.50;5020528;28;45530;-84
2021/12/18 03:48:06;;;;;;;;;39.75;33.75;;;;;7.06;67.98;103438.47;5020164;28;46286;-85
2021/12/18 03:50:31;;;;;;;;;39.25;34.00;;;;;7.05;68.33;103436.69;5019086;28;45473;-84
2021/12/18 03:52:56;;;;;;;;;40.75;33.25;;;;;7.11;67.91;103436.84;5035691;28;45283;-84
2021/12/18 03:55:22;;;;;;;;;37.50;34.00;;;;;7.11;68.33;103438.59;5020372;28;45269;-85
2021/12/18 03:57:48;;;;;;;;;39.75;31.25;;;;;7.07;68.29;103434.97;5019889;28;45573;-85
2021/12/18 04:00:16;;;;;;;;;34.00;30.75;;;;;7.02;68.51;103432.25;5018954;28;45258;-85
2021/12/18 04:02:42;;;;;;;;;45.75;33.75;;;;;7.01;68.22;103432.22;5020186;28;45441;-84
2021/12/18 04:05:08;;;;;;;;;37.00;33.50;;;;;7.02;68.91;103439.22;5018965;28;47163;-84
2021/12/18 04:07:40;;;;;;;;;37.75;33.00;;;;;7.03;69.07;103436.66;5020136;28;45667;-83
2021/12/18 04:10:08;;;;;;;;;44.50;36.25;;;;;7.06;68.75;103433.22;5018877;28;46017;-84
2021/12/18 04:12:33;;;;;;;;;30.50;30.50;;;;;7.06;68.68;103431.47;5035388;28;45503;-84
2021/12/18 04:14:58;;;;;;;;;37.00;32.75;;;;;7.08;69.05;103431.53;5029059;28;45484;-84
2021/12/18 04:17:24;;;;;;;;;50.50;39.25;;;;;7.15;69.00;103433.47;5031796;28;45409;-85
2021/12/18 04:19:49;;;;;;;;;39.00;30.00;;;;;7.17;69.25;103436.09;5023579;28;45411;-84
2021/12/18 04:22:14;;;;;;;;;35.50;30.00;;;;;7.24;69.23;103427.56;5020077;28;45451;-85
2021/12/18 04:24:40;;;;;;;;;33.75;30.00;;;;;7.29;68.68;103431.19;5019834;28;45367;-85
2021/12/18 04:27:05;;;;;;;;;36.25;33.00;;;;;7.34;68.61;103428.66;5019653;28;46309;-84
2021/12/18 04:29:30;;;;;;;;;36.25;30.50;;;;;7.37;68.40;103422.63;5019111;28;45351;-84
2021/12/18 04:31:56;;;;;;;;;37.25;31.50;;;;;7.41;68.30;103427.97;5020088;28;45358;-85
2021/12/18 04:34:21;;;;;;;;;34.00;32.50;;;;;7.46;68.99;103432.44;5019416;28;45245;-85
2021/12/18 04:36:47;;;;;;;;;40.75;30.75;;;;;7.51;68.50;103434.31;5005026;28;48069;-84
2021/12/18 04:39:12;;;;;;;;;46.25;32.50;;;;;7.55;68.48;103432.66;5018924;28;45497;-83
2021/12/18 04:41:47;;;;;;;;;35.75;30.00;;;;;7.55;68.17;103435.28;5018935;28;45410;-84
2021/12/18 04:44:13;;;;;;;;;36.25;30.50;;;;;7.59;68.56;103430.97;5027973;28;46840;-84
2021/12/18 04:46:38;;;;;;;;;42.25;34.75;;;;;7.62;68.48;103444.16;5018183;28;47288;-83
2021/12/18 04:49:03;;;;;;;;;36.25;30.00;;;;;7.59;68.74;103444.97;5018872;28;45443;-83
2021/12/18 04:51:29;;;;;;;;;33.75;30.50;;;;;7.58;68.20;103445.78;5029988;28;45517;-84
2021/12/18 04:53:54;;;;;;;;;39.25;30.00;;;;;7.57;68.69;103444.03;5019707;28;45476;-84
2021/12/18 04:56:20;;;;;;;;;38.25;32.75;;;;;7.62;68.56;103450.28;5019190;28;45474;-83
2021/12/18 04:58:45;;;;;;;;;39.25;31.50;;;;;7.68;68.48;103443.41;5018967;28;45254;-83
2021/12/18 05:01:11;;;;;;;;;37.75;31.00;;;;;7.73;68.76;103450.50;5019352;28;45398;-85
2021/12/18 05:03:39;;;;;;;;;36.75;31.50;;;;;7.77;68.09;103443.63;5019464;28;45589;-85
2021/12/18 05:06:04;;;;;;;;;40.75;34.25;;;;;7.73;68.44;103447.03;5021855;28;46325;-84
2021/12/18 05:08:30;;;;;;;;;33.75;32.00;;;;;7.73;68.15;103452.28;5029979;28;45417;-82
2021/12/18 05:10:56;;;;;;;;;33.50;32.50;;;;;7.78;68.17;103460.22;5017098;28;45490;-82
2021/12/18 05:13:21;;;;;;;;;32.00;27.50;;;;;7.80;68.43;103453.28;5019169;28;45278;-82
2021/12/18 05:15:47;;;;;;;;;32.00;29.00;;;;;7.84;68.29;103465.59;5018992;28;46325;-82
2021/12/18 05:18:12;;;;;;;;;39.50;32.75;;;;;7.90;68.15;103455.25;5018401;28;45218;-82
2021/12/18 05:20:38;;;;;;;;;33.75;29.75;;;;;7.90;67.83;103460.50;5019829;28;45249;-83
2021/12/18 05:23:03;;;;;;;;;39.75;32.50;;;;;7.86;68.08;103459.53;5022746;28;45478;-82
2021/12/18 05:25:29;;;;;;;;;35.50;33.00;;;;;7.90;67.71;103457.00;5021827;28;46456;-81
2021/12/18 05:27:54;;;;;;;;;36.25;30.75;;;;;7.93;68.67;103454.41;5022559;28;45260;-81
2021/12/18 05:30:19;;;;;;;;;38.50;28.75;;;;;7.97;68.16;103459.78;5022710;28;45222;-81
2021/12/18 05:32:45;;;;;;;;;35.25;32.00;;;;;8.03;68.53;103458.13;5022763;28;45192;-82
2021/12/18 05:35:10;;;;;;;;;44.00;33.50;;;;;8.08;68.50;103460.00;5021579;28;45447;-84
2021/12/18 05:40:20;;;;;;;;;33.50;31.75;;;;;8.14;67.60;103458.38;5029011;28;45289;-81
2021/12/18 05:42:46;;;;;;;;;36.50;33.50;;;;;8.15;67.74;103458.38;5030344;28;47385;-81
2021/12/18 05:45:12;;;;;;;;;30.25;28.00;;;;;8.15;67.29;103460.16;5021852;28;46557;-81
2021/12/18 05:47:37;;;;;;;;;33.00;32.75;;;;;8.13;67.43;103449.63;5037779;28;45272;-82
2021/12/18 05:50:05;;;;;;;;;34.25;31.50;;;;;8.15;67.79;103461.00;5022256;28;45418;-82
2021/12/18 05:52:30;;;;;;;;;33.75;30.00;;;;;8.12;67.69;103453.09;5026602;28;45527;-82
2021/12/18 05:54:56;;;;;;;;;33.25;27.25;;;;;8.10;67.30;103450.44;5022392;28;45446;-82
2021/12/18 05:57:21;;;;;;;;;40.25;30.25;;;;;8.16;67.65;103454.94;5021810;28;45316;-81
2021/12/18 05:59:47;;;;;;;;;33.75;30.50;;;;;8.11;67.31;103443.47;5022433;28;45197;-81
2021/12/18 06:02:12;;;;;;;;;38.25;31.50;;;;;8.09;66.98;103442.56;5019842;28;46195;-83
2021/12/18 06:04:38;;;;;;;;;31.25;27.75;;;;;8.10;67.55;103445.19;5021923;28;45430;-83
2021/12/18 06:07:05;;;;;;;;;40.50;31.25;;;;;8.07;66.95;103447.78;5022408;28;45404;-82
2021/12/18 06:09:33;;;;;;;;;30.75;30.75;;;;;8.06;67.44;103440.75;5021917;28;45502;-82
2021/12/18 06:12:00;;;;;;;;;39.50;33.25;;;;;8.07;67.22;103446.88;5026386;28;45573;-83
2021/12/18 06:14:26;;;;;;;;;36.75;29.75;;;;;8.06;67.24;103437.25;5021598;28;45414;-83
2021/12/18 06:16:51;;;;;;;;;38.00;30.25;;;;;8.09;66.88;103442.56;5033461;28;45303;-83
2021/12/18 06:19:17;;;;;;;;;33.50;28.75;;;;;8.04;66.92;103442.47;5021817;28;45281;-83
2021/12/18 06:21:42;;;;;;;;;34.25;30.75;;;;;8.06;67.43;103434.63;5020953;28;45305;-84
2021/12/18 06:24:07;;;;;;;;;35.25;29.25;;;;;8.02;67.07;103428.44;5025743;28;45281;-83
2021/12/18 06:26:33;;;;;;;;;34.25;29.50;;;;;8.03;66.80;103424.97;5024198;28;45264;-83
2021/12/18 06:28:58;;;;;;;;;40.50;34.50;;;;;8.01;66.31;103428.41;5027432;28;45481;-83
2021/12/18 06:31:24;;;;;;;;;45.00;36.25;;;;;7.98;66.32;103431.84;5026373;28;45307;-83
2021/12/18 06:33:58;;;;;;;;;45.50;36.00;;;;;7.91;66.77;103435.19;5019303;28;46352;-83
2021/12/18 06:36:23;;;;;;;;;44.00;36.00;;;;;7.85;66.73;103431.56;5014895;28;45336;-83
2021/12/18 06:38:49;;;;;;;;;38.00;32.25;;;;;7.81;66.42;103428.84;5020647;28;45387;-83
2021/12/18 06:41:15;;;;;;;;;54.50;39.75;;;;;7.79;66.60;103434.06;5013699;28;45407;-83
2021/12/18 06:43:40;;;;;;;;;48.25;36.50;;;;;7.73;67.10;103426.94;5015325;28;46026;-83
2021/12/18 06:46:06;;;;;;;;;51.75;39.25;;;;;7.71;67.17;103431.25;5021546;28;45247;-82
2021/12/18 06:48:32;;;;;;;;;51.25;38.25;;;;;7.69;66.85;103432.06;5027928;28;45472;-83
2021/12/18 06:50:58;;;;;;;;;54.50;43.75;;;;;7.65;66.53;103439.84;5035258;28;46154;-83
2021/12/18 06:53:23;;;;;;;;;45.25;38.00;;;;;7.62;66.85;103442.41;5013011;28;46206;-83
2021/12/18 06:55:48;;;;;;;;;50.25;41.25;;;;;7.61;66.54;103444.97;5019833;28;45382;-82
2021/12/18 06:58:14;;;;;;;;;50.75;37.25;;;;;7.59;66.81;103444.97;5012741;28;46135;-82
2021/12/18 07:00:39;;;;;;;;;39.75;32.75;;;;;7.54;67.20;103443.97;5020542;28;45533;-82
2021/12/18 07:03:05;;;;;;;;;63.00;46.50;;;;;7.48;67.53;103446.44;5017799;28;46497;-83
2021/12/18 07:05:30;;;;;;;;;41.25;35.50;;;;;7.49;67.25;103440.34;5020289;28;45291;-83
2021/12/18 07:07:56;;;;;;;;;39.00;34.00;;;;;7.46;67.63;103437.69;5025456;28;45480;-84
2021/12/18 07:10:21;;;;;;;;;41.00;33.50;;;;;7.41;67.55;103442.78;5017086;28;45584;-84
2021/12/18 07:12:47;;;;;;;;;39.75;32.75;;;;;7.39;67.95;103441.88;5019414;28;46377;-83
2021/12/18 07:15:12;;;;;;;;;39.75;29.50;;;;;7.42;67.73;103450.69;5029802;28;45374;-83
2021/12/18 07:17:39;;;;;;;;;47.75;35.25;;;;;7.39;67.21;103434.91;5007660;28;45150;-83
2021/12/18 07:20:06;;;;;;;;;38.50;33.25;;;;;7.39;67.41;103442.75;5020374;28;45237;-83
2021/12/18 07:22:31;;;;;;;;;42.75;35.00;;;;;7.38;67.11;103440.09;5020936;28;46860;-84
